sensor_id;sensor_type;location;lat;lon;timestamp;P1;durP1;ratioP1;P2;durP2;ratioP2
52450;SDS011;38366;53.176;6.540;2022-08-16T00:01:32;14.65;;;12.07;;
52450;SDS011;38366;53.176;6.540;2022-08-16T00:03:58;17.30;;;13.00;;
52450;SDS011;38366;53.176;6.540;2022-08-16T00:06:23;13.93;;;12.43;;
52450;SDS011;38366;53.176;6.540;2022-08-16T00:08:49;13.70;;;12.30;;
52450;SDS011;38366;53.176;6.540;2022-08-16T00:11:15;13.88;;;12.48;;
52450;SDS011;38366;53.176;6.540;2022-08-16T00:13:41;12.30;;;11.07;;
52450;SDS011;38366;53.176;6.540;2022-08-16T00:16:10;13.88;;;11.82;;
52450;SDS011;38366;53.176;6.540;2022-08-16T00:18:36;15.30;;;12.57;;
52450;SDS011;38366;53.176;6.540;2022-08-16T00:21:02;13.73;;;11.70;;
52450;SDS011;38366;53.176;6.540;2022-08-16T00:23:27;13.50;;;12.15;;
52450;SDS011;38366;53.176;6.540;2022-08-16T00:25:53;13.07;;;11.65;;
52450;SDS011;38366;53.176;6.540;2022-08-16T00:28:19;13.48;;;12.10;;
52450;SDS011;38366;53.176;6.540;2022-08-16T00:30:45;14.23;;;12.82;;
52450;SDS011;38366;53.176;6.540;2022-08-16T00:33:11;13.75;;;11.88;;
52450;SDS011;38366;53.176;6.540;2022-08-16T00:35:44;15.30;;;13.20;;
52450;SDS011;38366;53.176;6.540;2022-08-16T00:38:10;16.67;;;13.27;;
52450;SDS011;38366;53.176;6.540;2022-08-16T00:40:37;15.85;;;12.68;;
52450;SDS011;38366;53.176;6.540;2022-08-16T00:43:12;14.95;;;13.32;;
52450;SDS011;38366;53.176;6.540;2022-08-16T00:45:43;14.50;;;13.10;;
52450;SDS011;38366;53.176;6.540;2022-08-16T00:48:31;14.52;;;12.57;;
52450;SDS011;38366;53.176;6.540;2022-08-16T00:50:57;14.60;;;13.10;;
52450;SDS011;38366;53.176;6.540;2022-08-16T00:53:24;15.90;;;12.85;;
52450;SDS011;38366;53.176;6.540;2022-08-16T00:55:51;16.42;;;13.43;;
52450;SDS011;38366;53.176;6.540;2022-08-16T00:58:19;15.38;;;12.57;;
52450;SDS011;38366;53.176;6.540;2022-08-16T01:00:48;13.68;;;12.27;;
52450;SDS011;38366;53.176;6.540;2022-08-16T01:05:42;13.75;;;12.25;;
52450;SDS011;38366;53.176;6.540;2022-08-16T01:08:09;14.20;;;12.25;;
52450;SDS011;38366;53.176;6.540;2022-08-16T01:10:37;14.45;;;12.73;;
52450;SDS011;38366;53.176;6.540;2022-08-16T01:13:07;13.90;;;12.50;;
52450;SDS011;38366;53.176;6.540;2022-08-16T01:15:36;14.80;;;12.50;;
52450;SDS011;38366;53.176;6.540;2022-08-16T01:18:05;15.52;;;13.68;;
52450;SDS011;38366;53.176;6.540;2022-08-16T01:20:37;13.90;;;12.50;;
52450;SDS011;38366;53.176;6.540;2022-08-16T01:23:13;13.88;;;12.43;;
52450;SDS011;38366;53.176;6.540;2022-08-16T01:25:45;14.20;;;12.70;;
52450;SDS011;38366;53.176;6.540;2022-08-16T01:28:14;14.07;;;12.65;;
52450;SDS011;38366;53.176;6.540;2022-08-16T01:30:43;15.73;;;13.05;;
52450;SDS011;38366;53.176;6.540;2022-08-16T01:33:13;13.20;;;11.77;;
52450;SDS011;38366;53.176;6.540;2022-08-16T01:38:27;16.23;;;12.35;;
52450;SDS011;38366;53.176;6.540;2022-08-16T01:40:57;12.90;;;11.65;;
52450;SDS011;38366;53.176;6.540;2022-08-16T01:43:26;15.32;;;12.52;;
52450;SDS011;38366;53.176;6.540;2022-08-16T01:45:55;15.05;;;12.90;;
52450;SDS011;38366;53.176;6.540;2022-08-16T01:48:23;15.18;;;12.82;;
52450;SDS011;38366;53.176;6.540;2022-08-16T01:50:52;15.57;;;12.38;;
52450;SDS011;38366;53.176;6.540;2022-08-16T01:53:18;14.35;;;12.13;;
52450;SDS011;38366;53.176;6.540;2022-08-16T01:55:44;14.77;;;12.68;;
52450;SDS011;38366;53.176;6.540;2022-08-16T01:58:13;14.57;;;12.32;;
52450;SDS011;38366;53.176;6.540;2022-08-16T02:00:40;16.30;;;12.80;;
52450;SDS011;38366;53.176;6.540;2022-08-16T02:03:07;15.77;;;13.43;;
52450;SDS011;38366;53.176;6.540;2022-08-16T02:05:34;14.30;;;12.80;;
52450;SDS011;38366;53.176;6.540;2022-08-16T02:08:00;15.68;;;13.98;;
52450;SDS011;38366;53.176;6.540;2022-08-16T02:10:27;17.02;;;13.02;;
52450;SDS011;38366;53.176;6.540;2022-08-16T02:12:53;15.27;;;13.50;;
52450;SDS011;38366;53.176;6.540;2022-08-16T02:15:20;15.77;;;14.00;;
52450;SDS011;38366;53.176;6.540;2022-08-16T02:17:49;15.07;;;13.63;;
52450;SDS011;38366;53.176;6.540;2022-08-16T02:20:15;16.45;;;13.90;;
52450;SDS011;38366;53.176;6.540;2022-08-16T02:22:43;15.23;;;13.63;;
52450;SDS011;38366;53.176;6.540;2022-08-16T02:25:11;17.02;;;15.32;;
52450;SDS011;38366;53.176;6.540;2022-08-16T02:27:38;17.55;;;14.80;;
52450;SDS011;38366;53.176;6.540;2022-08-16T02:30:06;18.33;;;15.32;;
52450;SDS011;38366;53.176;6.540;2022-08-16T02:32:38;16.80;;;14.55;;
52450;SDS011;38366;53.176;6.540;2022-08-16T02:35:05;16.08;;;14.48;;
52450;SDS011;38366;53.176;6.540;2022-08-16T02:37:31;16.90;;;15.07;;
52450;SDS011;38366;53.176;6.540;2022-08-16T02:42:23;16.40;;;14.75;;
52450;SDS011;38366;53.176;6.540;2022-08-16T02:44:49;16.85;;;15.07;;
52450;SDS011;38366;53.176;6.540;2022-08-16T02:47:15;19.77;;;15.52;;
52450;SDS011;38366;53.176;6.540;2022-08-16T02:49:40;16.52;;;14.90;;
52450;SDS011;38366;53.176;6.540;2022-08-16T02:52:07;18.75;;;16.42;;
52450;SDS011;38366;53.176;6.540;2022-08-16T02:54:36;21.17;;;15.82;;
52450;SDS011;38366;53.176;6.540;2022-08-16T02:57:02;17.98;;;15.63;;
52450;SDS011;38366;53.176;6.540;2022-08-16T02:59:28;16.67;;;15.02;;
52450;SDS011;38366;53.176;6.540;2022-08-16T03:01:54;18.40;;;16.58;;
52450;SDS011;38366;53.176;6.540;2022-08-16T03:04:20;18.15;;;16.17;;
52450;SDS011;38366;53.176;6.540;2022-08-16T03:06:47;18.00;;;16.10;;
52450;SDS011;38366;53.176;6.540;2022-08-16T03:11:38;17.33;;;15.68;;
52450;SDS011;38366;53.176;6.540;2022-08-16T03:14:04;19.92;;;17.92;;
52450;SDS011;38366;53.176;6.540;2022-08-16T03:16:30;19.25;;;17.27;;
52450;SDS011;38366;53.176;6.540;2022-08-16T03:18:56;18.83;;;16.92;;
52450;SDS011;38366;53.176;6.540;2022-08-16T03:21:22;19.98;;;17.80;;
52450;SDS011;38366;53.176;6.540;2022-08-16T03:23:47;19.52;;;17.25;;
52450;SDS011;38366;53.176;6.540;2022-08-16T03:26:13;20.23;;;17.92;;
52450;SDS011;38366;53.176;6.540;2022-08-16T03:28:39;19.40;;;17.42;;
52450;SDS011;38366;53.176;6.540;2022-08-16T03:31:06;20.17;;;17.95;;
52450;SDS011;38366;53.176;6.540;2022-08-16T03:33:32;19.80;;;17.85;;
52450;SDS011;38366;53.176;6.540;2022-08-16T03:35:59;18.90;;;16.90;;
52450;SDS011;38366;53.176;6.540;2022-08-16T03:38:26;20.02;;;17.88;;
52450;SDS011;38366;53.176;6.540;2022-08-16T03:40:53;20.83;;;17.00;;
52450;SDS011;38366;53.176;6.540;2022-08-16T03:43:20;20.58;;;16.65;;
52450;SDS011;38366;53.176;6.540;2022-08-16T03:48:12;17.35;;;15.52;;
52450;SDS011;38366;53.176;6.540;2022-08-16T03:50:38;19.25;;;16.63;;
52450;SDS011;38366;53.176;6.540;2022-08-16T03:53:04;19.70;;;17.55;;
52450;SDS011;38366;53.176;6.540;2022-08-16T03:55:30;18.08;;;16.33;;
52450;SDS011;38366;53.176;6.540;2022-08-16T03:57:56;18.10;;;16.25;;
52450;SDS011;38366;53.176;6.540;2022-08-16T04:00:25;20.25;;;17.42;;
52450;SDS011;38366;53.176;6.540;2022-08-16T04:02:56;20.38;;;16.83;;
52450;SDS011;38366;53.176;6.540;2022-08-16T04:05:26;18.75;;;15.93;;
52450;SDS011;38366;53.176;6.540;2022-08-16T04:07:53;17.77;;;15.90;;
52450;SDS011;38366;53.176;6.540;2022-08-16T04:10:18;22.83;;;16.90;;
52450;SDS011;38366;53.176;6.540;2022-08-16T04:12:44;18.80;;;16.15;;
52450;SDS011;38366;53.176;6.540;2022-08-16T04:15:11;19.33;;;17.35;;
52450;SDS011;38366;53.176;6.540;2022-08-16T04:17:39;18.90;;;16.98;;
52450;SDS011;38366;53.176;6.540;2022-08-16T04:20:06;18.33;;;16.42;;
52450;SDS011;38366;53.176;6.540;2022-08-16T04:22:34;18.75;;;16.73;;
52450;SDS011;38366;53.176;6.540;2022-08-16T04:25:00;19.00;;;15.88;;
52450;SDS011;38366;53.176;6.540;2022-08-16T04:27:27;21.20;;;16.88;;
52450;SDS011;38366;53.176;6.540;2022-08-16T04:29:53;19.63;;;17.30;;
52450;SDS011;38366;53.176;6.540;2022-08-16T04:32:18;18.75;;;16.85;;
52450;SDS011;38366;53.176;6.540;2022-08-16T04:34:44;19.48;;;17.38;;
52450;SDS011;38366;53.176;6.540;2022-08-16T04:37:10;18.85;;;16.63;;
52450;SDS011;38366;53.176;6.540;2022-08-16T04:39:36;19.88;;;17.77;;
52450;SDS011;38366;53.176;6.540;2022-08-16T04:42:03;22.85;;;17.73;;
52450;SDS011;38366;53.176;6.540;2022-08-16T04:44:29;19.00;;;16.73;;
52450;SDS011;38366;53.176;6.540;2022-08-16T04:46:55;20.02;;;17.52;;
52450;SDS011;38366;53.176;6.540;2022-08-16T04:49:22;20.40;;;17.98;;
52450;SDS011;38366;53.176;6.540;2022-08-16T04:51:48;19.92;;;17.50;;
52450;SDS011;38366;53.176;6.540;2022-08-16T04:54:14;20.60;;;18.10;;
52450;SDS011;38366;53.176;6.540;2022-08-16T04:56:40;20.55;;;18.40;;
52450;SDS011;38366;53.176;6.540;2022-08-16T04:59:06;21.05;;;18.70;;
52450;SDS011;38366;53.176;6.540;2022-08-16T05:01:35;21.55;;;18.20;;
52450;SDS011;38366;53.176;6.540;2022-08-16T05:04:01;20.80;;;17.10;;
52450;SDS011;38366;53.176;6.540;2022-08-16T05:06:30;19.33;;;17.23;;
52450;SDS011;38366;53.176;6.540;2022-08-16T05:08:56;21.30;;;17.92;;
52450;SDS011;38366;53.176;6.540;2022-08-16T05:11:22;20.67;;;17.70;;
52450;SDS011;38366;53.176;6.540;2022-08-16T05:13:49;20.88;;;18.67;;
52450;SDS011;38366;53.176;6.540;2022-08-16T05:16:16;18.00;;;15.98;;
52450;SDS011;38366;53.176;6.540;2022-08-16T05:18:47;19.35;;;17.25;;
52450;SDS011;38366;53.176;6.540;2022-08-16T05:21:16;18.35;;;16.45;;
52450;SDS011;38366;53.176;6.540;2022-08-16T05:23:42;18.85;;;16.50;;
52450;SDS011;38366;53.176;6.540;2022-08-16T05:26:08;17.95;;;16.05;;
52450;SDS011;38366;53.176;6.540;2022-08-16T05:28:34;20.63;;;16.42;;
52450;SDS011;38366;53.176;6.540;2022-08-16T05:31:00;19.00;;;16.88;;
52450;SDS011;38366;53.176;6.540;2022-08-16T05:33:25;20.17;;;17.42;;
52450;SDS011;38366;53.176;6.540;2022-08-16T05:35:51;19.90;;;17.08;;
52450;SDS011;38366;53.176;6.540;2022-08-16T05:38:17;19.15;;;16.08;;
52450;SDS011;38366;53.176;6.540;2022-08-16T05:40:43;18.55;;;16.50;;
52450;SDS011;38366;53.176;6.540;2022-08-16T05:43:09;22.13;;;16.30;;
52450;SDS011;38366;53.176;6.540;2022-08-16T05:45:35;19.08;;;16.50;;
52450;SDS011;38366;53.176;6.540;2022-08-16T05:48:01;18.02;;;16.13;;
52450;SDS011;38366;53.176;6.540;2022-08-16T05:50:27;18.80;;;15.80;;
52450;SDS011;38366;53.176;6.540;2022-08-16T05:52:53;18.35;;;16.23;;
52450;SDS011;38366;53.176;6.540;2022-08-16T05:55:19;17.35;;;15.43;;
52450;SDS011;38366;53.176;6.540;2022-08-16T05:57:45;17.77;;;15.43;;
52450;SDS011;38366;53.176;6.540;2022-08-16T06:00:11;18.77;;;15.73;;
52450;SDS011;38366;53.176;6.540;2022-08-16T06:02:39;17.85;;;15.80;;
52450;SDS011;38366;53.176;6.540;2022-08-16T06:05:05;19.40;;;16.55;;
52450;SDS011;38366;53.176;6.540;2022-08-16T06:07:32;19.45;;;16.35;;
52450;SDS011;38366;53.176;6.540;2022-08-16T06:09:58;18.50;;;15.95;;
52450;SDS011;38366;53.176;6.540;2022-08-16T06:12:25;18.95;;;15.98;;
52450;SDS011;38366;53.176;6.540;2022-08-16T06:14:53;18.63;;;15.85;;
52450;SDS011;38366;53.176;6.540;2022-08-16T06:17:22;18.52;;;15.82;;
52450;SDS011;38366;53.176;6.540;2022-08-16T06:19:48;19.73;;;16.08;;
52450;SDS011;38366;53.176;6.540;2022-08-16T06:22:14;19.25;;;16.77;;
52450;SDS011;38366;53.176;6.540;2022-08-16T06:24:40;18.77;;;15.93;;
52450;SDS011;38366;53.176;6.540;2022-08-16T06:27:08;18.33;;;16.20;;
52450;SDS011;38366;53.176;6.540;2022-08-16T06:29:34;19.35;;;14.48;;
52450;SDS011;38366;53.176;6.540;2022-08-16T06:32:00;20.50;;;15.23;;
52450;SDS011;38366;53.176;6.540;2022-08-16T06:34:26;17.38;;;14.60;;
52450;SDS011;38366;53.176;6.540;2022-08-16T06:36:52;17.52;;;14.82;;
52450;SDS011;38366;53.176;6.540;2022-08-16T06:39:18;18.23;;;15.68;;
52450;SDS011;38366;53.176;6.540;2022-08-16T06:41:43;17.30;;;14.00;;
52450;SDS011;38366;53.176;6.540;2022-08-16T06:44:09;18.63;;;14.50;;
52450;SDS011;38366;53.176;6.540;2022-08-16T06:46:36;15.25;;;13.65;;
52450;SDS011;38366;53.176;6.540;2022-08-16T06:49:06;17.13;;;14.32;;
52450;SDS011;38366;53.176;6.540;2022-08-16T06:51:33;17.33;;;13.77;;
52450;SDS011;38366;53.176;6.540;2022-08-16T06:54:01;14.77;;;13.15;;
52450;SDS011;38366;53.176;6.540;2022-08-16T06:56:27;16.67;;;13.90;;
52450;SDS011;38366;53.176;6.540;2022-08-16T07:01:22;14.73;;;12.80;;
52450;SDS011;38366;53.176;6.540;2022-08-16T07:03:48;17.90;;;12.82;;
52450;SDS011;38366;53.176;6.540;2022-08-16T07:06:15;14.25;;;12.75;;
52450;SDS011;38366;53.176;6.540;2022-08-16T07:08:42;18.13;;;14.20;;
52450;SDS011;38366;53.176;6.540;2022-08-16T07:11:10;15.95;;;12.98;;
52450;SDS011;38366;53.176;6.540;2022-08-16T07:13:36;15.25;;;13.52;;
52450;SDS011;38366;53.176;6.540;2022-08-16T07:20:55;14.10;;;12.57;;
52450;SDS011;38366;53.176;6.540;2022-08-16T07:23:22;15.07;;;12.43;;
52450;SDS011;38366;53.176;6.540;2022-08-16T07:25:49;13.52;;;12.05;;
52450;SDS011;38366;53.176;6.540;2022-08-16T07:28:16;14.63;;;12.10;;
52450;SDS011;38366;53.176;6.540;2022-08-16T07:30:43;13.07;;;11.30;;
52450;SDS011;38366;53.176;6.540;2022-08-16T07:33:10;12.23;;;10.13;;
52450;SDS011;38366;53.176;6.540;2022-08-16T07:35:36;15.75;;;11.10;;
52450;SDS011;38366;53.176;6.540;2022-08-16T07:38:03;12.30;;;10.15;;
52450;SDS011;38366;53.176;6.540;2022-08-16T07:40:30;12.80;;;10.50;;
52450;SDS011;38366;53.176;6.540;2022-08-16T07:42:57;13.23;;;10.55;;
52450;SDS011;38366;53.176;6.540;2022-08-16T07:45:22;11.60;;;10.48;;
52450;SDS011;38366;53.176;6.540;2022-08-16T07:47:48;14.85;;;11.05;;
52450;SDS011;38366;53.176;6.540;2022-08-16T07:50:14;11.25;;;10.15;;
52450;SDS011;38366;53.176;6.540;2022-08-16T07:52:41;11.50;;;10.30;;
52450;SDS011;38366;53.176;6.540;2022-08-16T07:55:08;12.73;;;10.75;;
52450;SDS011;38366;53.176;6.540;2022-08-16T07:57:37;11.15;;;9.95;;
52450;SDS011;38366;53.176;6.540;2022-08-16T08:00:04;12.82;;;10.98;;
52450;SDS011;38366;53.176;6.540;2022-08-16T08:02:31;16.27;;;10.75;;
52450;SDS011;38366;53.176;6.540;2022-08-16T08:04:57;12.07;;;10.93;;
52450;SDS011;38366;53.176;6.540;2022-08-16T08:07:23;15.48;;;10.27;;
52450;SDS011;38366;53.176;6.540;2022-08-16T08:09:49;14.65;;;9.80;;
52450;SDS011;38366;53.176;6.540;2022-08-16T08:12:15;12.13;;;10.20;;
52450;SDS011;38366;53.176;6.540;2022-08-16T08:14:44;11.68;;;10.48;;
52450;SDS011;38366;53.176;6.540;2022-08-16T08:17:10;11.38;;;10.15;;
52450;SDS011;38366;53.176;6.540;2022-08-16T08:19:36;14.07;;;10.63;;
52450;SDS011;38366;53.176;6.540;2022-08-16T08:22:03;11.50;;;10.07;;
52450;SDS011;38366;53.176;6.540;2022-08-16T08:24:29;14.75;;;10.20;;
52450;SDS011;38366;53.176;6.540;2022-08-16T08:26:57;12.25;;;9.52;;
52450;SDS011;38366;53.176;6.540;2022-08-16T08:29:26;13.45;;;9.68;;
52450;SDS011;38366;53.176;6.540;2022-08-16T08:31:52;10.88;;;8.85;;
52450;SDS011;38366;53.176;6.540;2022-08-16T08:34:18;11.65;;;9.15;;
52450;SDS011;38366;53.176;6.540;2022-08-16T08:36:45;12.57;;;10.13;;
52450;SDS011;38366;53.176;6.540;2022-08-16T08:39:13;9.80;;;8.80;;
52450;SDS011;38366;53.176;6.540;2022-08-16T08:41:42;13.40;;;9.00;;
52450;SDS011;38366;53.176;6.540;2022-08-16T08:44:09;10.90;;;9.13;;
52450;SDS011;38366;53.176;6.540;2022-08-16T08:46:36;9.77;;;7.95;;
52450;SDS011;38366;53.176;6.540;2022-08-16T08:49:02;8.88;;;7.97;;
52450;SDS011;38366;53.176;6.540;2022-08-16T08:51:32;11.10;;;9.20;;
52450;SDS011;38366;53.176;6.540;2022-08-16T08:53:58;10.38;;;9.32;;
52450;SDS011;38366;53.176;6.540;2022-08-16T08:56:24;11.13;;;9.15;;
52450;SDS011;38366;53.176;6.540;2022-08-16T08:58:50;10.00;;;9.00;;
52450;SDS011;38366;53.176;6.540;2022-08-16T09:01:18;9.70;;;8.80;;
52450;SDS011;38366;53.176;6.540;2022-08-16T09:03:47;9.90;;;8.02;;
52450;SDS011;38366;53.176;6.540;2022-08-16T09:06:13;9.73;;;7.43;;
52450;SDS011;38366;53.176;6.540;2022-08-16T09:08:39;7.55;;;6.72;;
52450;SDS011;38366;53.176;6.540;2022-08-16T09:11:04;8.70;;;5.97;;
52450;SDS011;38366;53.176;6.540;2022-08-16T09:13:30;7.20;;;5.47;;
52450;SDS011;38366;53.176;6.540;2022-08-16T09:15:58;7.53;;;5.90;;
52450;SDS011;38366;53.176;6.540;2022-08-16T09:18:24;9.45;;;6.45;;
52450;SDS011;38366;53.176;6.540;2022-08-16T09:20:52;7.32;;;5.45;;
52450;SDS011;38366;53.176;6.540;2022-08-16T09:23:18;6.95;;;5.32;;
52450;SDS011;38366;53.176;6.540;2022-08-16T09:25:44;9.30;;;5.45;;
52450;SDS011;38366;53.176;6.540;2022-08-16T09:28:10;6.28;;;4.95;;
52450;SDS011;38366;53.176;6.540;2022-08-16T09:30:36;5.95;;;4.60;;
52450;SDS011;38366;53.176;6.540;2022-08-16T09:33:03;7.35;;;4.65;;
52450;SDS011;38366;53.176;6.540;2022-08-16T09:35:29;10.65;;;5.40;;
52450;SDS011;38366;53.176;6.540;2022-08-16T09:37:55;8.75;;;4.97;;
52450;SDS011;38366;53.176;6.540;2022-08-16T09:40:21;7.47;;;5.70;;
52450;SDS011;38366;53.176;6.540;2022-08-16T09:42:47;6.55;;;5.60;;
52450;SDS011;38366;53.176;6.540;2022-08-16T09:45:14;10.20;;;6.80;;
52450;SDS011;38366;53.176;6.540;2022-08-16T09:47:41;8.45;;;6.07;;
52450;SDS011;38366;53.176;6.540;2022-08-16T09:50:07;7.00;;;6.07;;
52450;SDS011;38366;53.176;6.540;2022-08-16T09:52:34;7.75;;;6.07;;
52450;SDS011;38366;53.176;6.540;2022-08-16T09:55:03;7.70;;;5.07;;
52450;SDS011;38366;53.176;6.540;2022-08-16T09:57:34;7.93;;;5.45;;
52450;SDS011;38366;53.176;6.540;2022-08-16T10:00:01;9.57;;;5.60;;
52450;SDS011;38366;53.176;6.540;2022-08-16T10:02:29;6.50;;;5.32;;
52450;SDS011;38366;53.176;6.540;2022-08-16T10:04:56;11.15;;;6.13;;
52450;SDS011;38366;53.176;6.540;2022-08-16T10:07:25;11.15;;;7.13;;
52450;SDS011;38366;53.176;6.540;2022-08-16T10:09:52;7.28;;;6.10;;
52450;SDS011;38366;53.176;6.540;2022-08-16T10:12:18;7.55;;;6.53;;
52450;SDS011;38366;53.176;6.540;2022-08-16T10:15:03;9.40;;;6.00;;
52450;SDS011;38366;53.176;6.540;2022-08-16T10:17:29;6.45;;;5.43;;
52450;SDS011;38366;53.176;6.540;2022-08-16T10:19:55;8.73;;;6.53;;
52450;SDS011;38366;53.176;6.540;2022-08-16T10:22:21;6.88;;;6.18;;
52450;SDS011;38366;53.176;6.540;2022-08-16T10:24:47;6.55;;;5.80;;
52450;SDS011;38366;53.176;6.540;2022-08-16T10:27:13;10.15;;;6.30;;
52450;SDS011;38366;53.176;6.540;2022-08-16T10:29:39;8.90;;;5.97;;
52450;SDS011;38366;53.176;6.540;2022-08-16T10:32:05;7.40;;;5.90;;
52450;SDS011;38366;53.176;6.540;2022-08-16T10:34:31;7.53;;;6.55;;
52450;SDS011;38366;53.176;6.540;2022-08-16T10:36:56;9.55;;;6.50;;
52450;SDS011;38366;53.176;6.540;2022-08-16T10:39:22;8.40;;;6.78;;
52450;SDS011;38366;53.176;6.540;2022-08-16T10:41:48;8.75;;;7.65;;
52450;SDS011;38366;53.176;6.540;2022-08-16T10:44:14;10.20;;;6.82;;
52450;SDS011;38366;53.176;6.540;2022-08-16T10:46:40;9.90;;;7.18;;
52450;SDS011;38366;53.176;6.540;2022-08-16T10:49:07;9.27;;;7.00;;
52450;SDS011;38366;53.176;6.540;2022-08-16T10:51:34;11.57;;;7.60;;
52450;SDS011;38366;53.176;6.540;2022-08-16T10:54:02;6.93;;;6.18;;
52450;SDS011;38366;53.176;6.540;2022-08-16T10:56:28;9.07;;;7.07;;
52450;SDS011;38366;53.176;6.540;2022-08-16T10:58:54;8.88;;;7.30;;
52450;SDS011;38366;53.176;6.540;2022-08-16T11:01:21;8.55;;;6.53;;
52450;SDS011;38366;53.176;6.540;2022-08-16T11:03:50;6.57;;;5.93;;
52450;SDS011;38366;53.176;6.540;2022-08-16T11:06:17;8.13;;;6.60;;
52450;SDS011;38366;53.176;6.540;2022-08-16T11:08:42;8.43;;;6.90;;
52450;SDS011;38366;53.176;6.540;2022-08-16T11:11:08;8.45;;;6.88;;
52450;SDS011;38366;53.176;6.540;2022-08-16T11:13:36;9.65;;;6.22;;
52450;SDS011;38366;53.176;6.540;2022-08-16T11:16:02;8.80;;;7.35;;
52450;SDS011;38366;53.176;6.540;2022-08-16T11:18:28;10.90;;;6.70;;
52450;SDS011;38366;53.176;6.540;2022-08-16T11:20:54;7.60;;;6.30;;
52450;SDS011;38366;53.176;6.540;2022-08-16T11:23:23;6.38;;;5.65;;
52450;SDS011;38366;53.176;6.540;2022-08-16T11:25:49;11.38;;;5.90;;
52450;SDS011;38366;53.176;6.540;2022-08-16T11:28:16;7.03;;;5.60;;
52450;SDS011;38366;53.176;6.540;2022-08-16T11:30:42;5.85;;;4.80;;
52450;SDS011;38366;53.176;6.540;2022-08-16T11:33:08;5.18;;;4.35;;
52450;SDS011;38366;53.176;6.540;2022-08-16T11:35:34;7.25;;;5.45;;
52450;SDS011;38366;53.176;6.540;2022-08-16T11:38:08;6.90;;;5.47;;
52450;SDS011;38366;53.176;6.540;2022-08-16T11:40:47;7.10;;;5.35;;
52450;SDS011;38366;53.176;6.540;2022-08-16T11:43:17;6.40;;;5.67;;
52450;SDS011;38366;53.176;6.540;2022-08-16T11:45:48;6.63;;;4.90;;
52450;SDS011;38366;53.176;6.540;2022-08-16T11:48:14;4.82;;;4.43;;
52450;SDS011;38366;53.176;6.540;2022-08-16T11:50:41;8.35;;;4.70;;
52450;SDS011;38366;53.176;6.540;2022-08-16T11:53:08;6.95;;;5.45;;
52450;SDS011;38366;53.176;6.540;2022-08-16T11:55:35;6.55;;;5.20;;
52450;SDS011;38366;53.176;6.540;2022-08-16T11:58:02;7.93;;;4.60;;
52450;SDS011;38366;53.176;6.540;2022-08-16T12:00:29;6.65;;;4.35;;
52450;SDS011;38366;53.176;6.540;2022-08-16T12:02:56;6.35;;;4.65;;
52450;SDS011;38366;53.176;6.540;2022-08-16T12:05:21;6.28;;;5.30;;
52450;SDS011;38366;53.176;6.540;2022-08-16T12:07:48;7.80;;;4.68;;
52450;SDS011;38366;53.176;6.540;2022-08-16T12:10:16;7.07;;;3.95;;
52450;SDS011;38366;53.176;6.540;2022-08-16T12:12:43;6.60;;;4.75;;
52450;SDS011;38366;53.176;6.540;2022-08-16T12:15:11;6.35;;;5.20;;
52450;SDS011;38366;53.176;6.540;2022-08-16T12:17:37;7.03;;;4.20;;
52450;SDS011;38366;53.176;6.540;2022-08-16T12:20:05;7.45;;;4.90;;
52450;SDS011;38366;53.176;6.540;2022-08-16T12:22:34;9.82;;;5.15;;
52450;SDS011;38366;53.176;6.540;2022-08-16T12:25:02;5.53;;;4.93;;
52450;SDS011;38366;53.176;6.540;2022-08-16T12:27:32;5.60;;;4.72;;
52450;SDS011;38366;53.176;6.540;2022-08-16T12:29:59;7.18;;;5.00;;
52450;SDS011;38366;53.176;6.540;2022-08-16T12:32:25;5.85;;;4.72;;
52450;SDS011;38366;53.176;6.540;2022-08-16T12:34:51;7.68;;;4.90;;
52450;SDS011;38366;53.176;6.540;2022-08-16T12:37:17;5.95;;;4.32;;
52450;SDS011;38366;53.176;6.540;2022-08-16T12:39:43;9.02;;;4.45;;
52450;SDS011;38366;53.176;6.540;2022-08-16T12:42:09;7.50;;;4.50;;
52450;SDS011;38366;53.176;6.540;2022-08-16T12:44:37;5.93;;;4.30;;
52450;SDS011;38366;53.176;6.540;2022-08-16T12:47:06;6.38;;;4.25;;
52450;SDS011;38366;53.176;6.540;2022-08-16T12:49:51;5.38;;;4.68;;
52450;SDS011;38366;53.176;6.540;2022-08-16T12:52:17;5.43;;;4.45;;
52450;SDS011;38366;53.176;6.540;2022-08-16T12:54:42;6.05;;;4.10;;
52450;SDS011;38366;53.176;6.540;2022-08-16T12:57:08;5.65;;;4.07;;
52450;SDS011;38366;53.176;6.540;2022-08-16T12:59:34;5.55;;;4.10;;
52450;SDS011;38366;53.176;6.540;2022-08-16T13:02:01;5.20;;;4.00;;
52450;SDS011;38366;53.176;6.540;2022-08-16T13:04:28;4.90;;;3.80;;
52450;SDS011;38366;53.176;6.540;2022-08-16T13:06:57;5.38;;;3.72;;
52450;SDS011;38366;53.176;6.540;2022-08-16T13:09:24;7.57;;;3.60;;
52450;SDS011;38366;53.176;6.540;2022-08-16T13:11:56;4.50;;;3.38;;
52450;SDS011;38366;53.176;6.540;2022-08-16T13:14:25;3.97;;;3.50;;
52450;SDS011;38366;53.176;6.540;2022-08-16T13:17:10;4.18;;;3.78;;
52450;SDS011;38366;53.176;6.540;2022-08-16T13:19:41;4.55;;;3.50;;
52450;SDS011;38366;53.176;6.540;2022-08-16T13:22:07;4.70;;;4.28;;
52450;SDS011;38366;53.176;6.540;2022-08-16T13:24:33;5.30;;;4.65;;
52450;SDS011;38366;53.176;6.540;2022-08-16T13:26:59;5.78;;;5.22;;
52450;SDS011;38366;53.176;6.540;2022-08-16T13:29:25;8.05;;;5.57;;
52450;SDS011;38366;53.176;6.540;2022-08-16T13:31:51;6.93;;;4.57;;
52450;SDS011;38366;53.176;6.540;2022-08-16T13:34:17;7.80;;;5.88;;
52450;SDS011;38366;53.176;6.540;2022-08-16T13:36:43;10.15;;;7.18;;
52450;SDS011;38366;53.176;6.540;2022-08-16T13:39:08;11.80;;;6.43;;
52450;SDS011;38366;53.176;6.540;2022-08-16T13:41:35;7.47;;;6.40;;
52450;SDS011;38366;53.176;6.540;2022-08-16T13:44:01;8.57;;;6.32;;
52450;SDS011;38366;53.176;6.540;2022-08-16T13:46:28;7.10;;;6.20;;
52450;SDS011;38366;53.176;6.540;2022-08-16T13:48:55;10.20;;;7.07;;
52450;SDS011;38366;53.176;6.540;2022-08-16T13:51:21;10.07;;;6.80;;
52450;SDS011;38366;53.176;6.540;2022-08-16T13:53:54;8.23;;;6.55;;
52450;SDS011;38366;53.176;6.540;2022-08-16T13:56:22;8.15;;;5.85;;
52450;SDS011;38366;53.176;6.540;2022-08-16T13:58:48;6.57;;;5.88;;
52450;SDS011;38366;53.176;6.540;2022-08-16T14:01:17;6.25;;;5.32;;
52450;SDS011;38366;53.176;6.540;2022-08-16T14:03:44;7.38;;;5.53;;
52450;SDS011;38366;53.176;6.540;2022-08-16T14:06:10;6.32;;;5.38;;
52450;SDS011;38366;53.176;6.540;2022-08-16T14:08:37;8.40;;;5.35;;
52450;SDS011;38366;53.176;6.540;2022-08-16T14:11:04;7.93;;;5.55;;
52450;SDS011;38366;53.176;6.540;2022-08-16T14:13:31;9.63;;;4.78;;
52450;SDS011;38366;53.176;6.540;2022-08-16T14:15:57;7.68;;;5.40;;
52450;SDS011;38366;53.176;6.540;2022-08-16T14:18:23;9.02;;;5.10;;
52450;SDS011;38366;53.176;6.540;2022-08-16T14:20:49;7.80;;;5.15;;
52450;SDS011;38366;53.176;6.540;2022-08-16T14:23:15;7.90;;;5.43;;
52450;SDS011;38366;53.176;6.540;2022-08-16T14:25:41;9.07;;;4.93;;
52450;SDS011;38366;53.176;6.540;2022-08-16T14:28:07;9.50;;;5.03;;
52450;SDS011;38366;53.176;6.540;2022-08-16T14:30:33;5.78;;;4.88;;
52450;SDS011;38366;53.176;6.540;2022-08-16T14:32:59;7.82;;;5.18;;
52450;SDS011;38366;53.176;6.540;2022-08-16T14:35:26;8.15;;;6.00;;
52450;SDS011;38366;53.176;6.540;2022-08-16T14:37:54;7.70;;;5.70;;
52450;SDS011;38366;53.176;6.540;2022-08-16T14:40:19;8.02;;;5.97;;
52450;SDS011;38366;53.176;6.540;2022-08-16T14:42:47;8.73;;;5.70;;
52450;SDS011;38366;53.176;6.540;2022-08-16T14:45:14;9.02;;;6.13;;
52450;SDS011;38366;53.176;6.540;2022-08-16T14:47:42;11.98;;;5.35;;
52450;SDS011;38366;53.176;6.540;2022-08-16T14:50:09;7.45;;;5.20;;
52450;SDS011;38366;53.176;6.540;2022-08-16T14:52:44;8.50;;;5.50;;